Time;durP1;ratioP1;P1;durP2;ratioP2;P2;SDS_P1;SDS_P2;PMS_P1;PMS_P2;Temp;Humidity;BMP_temperature;BMP_pressure;BME280_temperature;BME280_humidity;BME280_pressure;Samples;Min_cycle;Max_cycle;Signal;HPM_P1;HPM_P2
2021/03/04 00:01:41;;;;;;;9.37;8.37;;;10.50;79.10;;;;;;4901329;29;20469;-82
2021/03/04 00:04:08;;;;;;;11.57;9.17;;;10.50;79.40;;;;;;4901120;29;20461;-81
2021/03/04 00:06:34;;;;;;;9.80;8.57;;;10.40;78.70;;;;;;4900858;29;20813;-81
2021/03/04 00:09:00;;;;;;;9.63;8.23;;;10.40;77.50;;;;;;4900461;29;20491;-81
2021/03/04 00:11:26;;;;;;;10.23;8.10;;;10.40;78.60;;;;;;4899988;29;20477;-81
2021/03/04 00:13:53;;;;;;;9.27;7.87;;;10.40;79.70;;;;;;4900315;29;20461;-81
2021/03/04 00:16:19;;;;;;;8.83;7.97;;;10.40;80.10;;;;;;4901545;29;20466;-81
2021/03/04 00:18:45;;;;;;;10.80;8.47;;;10.40;80.70;;;;;;4900764;29;20509;-81
2021/03/04 00:21:12;;;;;;;10.50;8.63;;;10.30;80.40;;;;;;4900447;29;20465;-81
2021/03/04 00:23:38;;;;;;;10.67;8.57;;;10.30;80.70;;;;;;4900302;29;20465;-81
2021/03/04 00:26:05;;;;;;;11.23;8.97;;;10.30;81.20;;;;;;4900647;29;20471;-81
2021/03/04 00:28:31;;;;;;;10.73;9.60;;;10.20;80.40;;;;;;4900521;29;20476;-81
2021/03/04 00:30:57;;;;;;;11.30;7.57;;;10.20;79.10;;;;;;4900275;29;20492;-81
2021/03/04 00:33:23;;;;;;;13.80;9.53;;;10.20;78.40;;;;;;4900192;29;20485;-81
2021/03/04 00:35:49;;;;;;;11.00;9.70;;;10.20;77.90;;;;;;4900044;29;20453;-81
2021/03/04 00:38:16;;;;;;;9.43;8.43;;;10.20;77.10;;;;;;4899752;29;20454;-81
2021/03/04 00:40:43;;;;;;;9.60;8.60;;;10.10;76.60;;;;;;4899939;29;20460;-81
2021/03/04 00:43:09;;;;;;;8.93;7.87;;;10.10;77.70;;;;;;4899966;29;20466;-81
2021/03/04 00:45:35;;;;;;;10.93;9.80;;;10.20;78.50;;;;;;4900015;29;20466;-81
2021/03/04 00:48:01;;;;;;;11.27;8.30;;;10.10;79.10;;;;;;4900092;29;20487;-82
2021/03/04 00:50:27;;;;;;;9.37;8.20;;;10.10;79.40;;;;;;4900215;29;20493;-81
2021/03/04 00:52:54;;;;;;;10.70;8.27;;;10.10;79.60;;;;;;4899543;29;21032;-81
2021/03/04 00:55:21;;;;;;;10.03;8.33;;;10.10;79.90;;;;;;4899723;29;20461;-80
2021/03/04 00:57:47;;;;;;;11.37;8.60;;;10.10;79.10;;;;;;4899965;29;20818;-81
2021/03/04 01:00:16;;;;;;;12.10;8.57;;;10.10;79.20;;;;;;4899372;29;20534;-80
2021/03/04 01:02:42;;;;;;;10.37;9.27;;;10.00;79.40;;;;;;4899650;29;20457;-80
2021/03/04 01:05:09;;;;;;;10.27;8.13;;;10.00;78.20;;;;;;4899727;29;21129;-80
2021/03/04 01:07:35;;;;;;;11.17;9.67;;;10.00;77.80;;;;;;4899552;29;20462;-80
2021/03/04 01:10:06;;;;;;;9.73;8.60;;;10.00;78.70;;;;;;4899127;29;20515;-80
2021/03/04 01:12:33;;;;;;;9.97;8.60;;;9.90;80.30;;;;;;4899196;29;20530;-80
2021/03/04 01:14:59;;;;;;;10.00;7.87;;;9.90;80.40;;;;;;4899661;29;20466;-80
2021/03/04 01:17:25;;;;;;;13.03;10.07;;;9.90;80.80;;;;;;4899144;29;20464;-80
2021/03/04 01:19:52;;;;;;;10.87;8.57;;;9.90;81.30;;;;;;4898945;29;20470;-80
2021/03/04 01:22:18;;;;;;;11.87;10.00;;;9.90;81.10;;;;;;4898922;29;20476;-80
2021/03/04 01:24:44;;;;;;;15.07;10.40;;;9.90;80.50;;;;;;4899388;29;20461;-80
2021/03/04 01:27:10;;;;;;;13.10;9.27;;;9.80;80.10;;;;;;4899101;29;20484;-80
2021/03/04 01:29:37;;;;;;;11.52;8.57;;;9.80;79.80;;;;;;4898807;29;20525;-80
2021/03/04 01:32:04;;;;;;;10.65;9.65;;;9.80;79.70;;;;;;4899133;29;20220;-80
2021/03/04 01:34:31;;;;;;;11.03;8.70;;;9.80;79.70;;;;;;4899044;29;20213;-80
2021/03/04 01:36:57;;;;;;;10.53;9.53;;;9.90;79.90;;;;;;4899182;29;20462;-80
2021/03/04 01:39:23;;;;;;;9.10;8.10;;;9.90;80.10;;;;;;4898997;29;20485;-80
2021/03/04 01:41:51;;;;;;;12.60;8.60;;;9.80;80.30;;;;;;4898705;29;20458;-80
2021/03/04 01:44:17;;;;;;;9.77;8.77;;;9.80;80.20;;;;;;4898737;29;21040;-80
2021/03/04 01:46:45;;;;;;;8.73;8.03;;;9.70;79.30;;;;;;4899159;29;20981;-80
2021/03/04 01:49:11;;;;;;;8.25;7.45;;;9.80;79.50;;;;;;4898542;29;20494;-80
2021/03/04 01:51:38;;;;;;;10.55;8.60;;;9.70;79.30;;;;;;4899168;29;20230;-79
2021/03/04 01:54:05;;;;;;;8.50;7.50;;;9.70;79.70;;;;;;4902840;29;20225;-80
2021/03/04 01:56:32;;;;;;;10.40;9.07;;;9.70;80.00;;;;;;4902440;29;20208;-79
2021/03/04 01:58:58;;;;;;;11.05;9.05;;;9.70;80.30;;;;;;4902354;29;20486;-79
2021/03/04 02:04:48;;;;;;;16.77;9.50;;;9.60;80.40;;;;;;4903623;29;20167;-78
2021/03/04 02:07:23;;;;;;;11.32;9.80;;;9.50;81.00;;;;;;4903287;29;20469;-80
2021/03/04 02:09:54;;;;;;;14.10;9.63;;;9.50;81.40;;;;;;4902515;29;20242;-80
2021/03/04 02:12:27;;;;;;;11.77;10.63;;;9.40;81.70;;;;;;4902247;29;20219;-79
2021/03/04 02:14:57;;;;;;;13.07;10.37;;;9.30;82.20;;;;;;4903051;29;20217;-79
2021/03/04 02:17:27;;;;;;;9.98;8.98;;;9.20;82.60;;;;;;4902386;29;20462;-79
2021/03/04 02:19:59;;;;;;;12.38;10.25;;;9.30;82.80;;;;;;4902307;29;20234;-79
2021/03/04 02:23:06;;;;;;;12.33;10.33;;;9.30;82.90;;;;;;4902053;29;20570;-81
2021/03/04 02:25:44;;;;;;;10.23;9.23;;;9.40;83.00;;;;;;4872294;29;20464;-79
2021/03/04 02:28:13;;;;;;;10.63;8.80;;;9.40;83.20;;;;;;4902583;29;20525;-79
2021/03/04 02:30:42;;;;;;;16.63;10.40;;;9.50;83.10;;;;;;4901994;29;20497;-79
2021/03/04 02:33:13;;;;;;;10.13;9.33;;;9.50;83.60;;;;;;4901734;29;20456;-79
2021/03/04 02:35:42;;;;;;;9.23;8.30;;;9.40;83.50;;;;;;4901847;29;20456;-80
2021/03/04 02:38:12;;;;;;;10.67;9.30;;;9.40;83.60;;;;;;4902495;29;20708;-79
2021/03/04 02:40:40;;;;;;;11.77;10.03;;;9.40;84.20;;;;;;4902297;29;20949;-79
2021/03/04 02:43:10;;;;;;;10.97;9.40;;;9.40;84.20;;;;;;4901781;29;20834;-79
2021/03/04 02:45:38;;;;;;;10.67;9.63;;;9.40;84.10;;;;;;4901321;29;20887;-80
2021/03/04 02:48:05;;;;;;;12.33;9.27;;;9.40;84.00;;;;;;4902227;29;20487;-79
2021/03/04 02:50:33;;;;;;;12.20;10.17;;;9.40;84.00;;;;;;4904991;29;20571;-78
2021/03/04 02:52:59;;;;;;;14.20;10.83;;;9.40;83.50;;;;;;4907894;29;20449;-78
2021/03/04 02:55:26;;;;;;;13.90;10.93;;;9.50;83.60;;;;;;4906781;29;20461;-78
2021/03/04 02:57:54;;;;;;;10.83;9.77;;;9.50;83.80;;;;;;4905031;29;20462;-80
2021/03/04 03:00:23;;;;;;;10.40;8.50;;;9.50;83.60;;;;;;4901786;29;20509;-79
2021/03/04 03:02:53;;;;;;;13.00;8.10;;;9.50;82.60;;;;;;4900963;29;20465;-79
2021/03/04 03:05:22;;;;;;;9.43;8.65;;;9.50;82.30;;;;;;4901719;29;20841;-79
2021/03/04 03:07:49;;;;;;;14.57;7.90;;;9.50;82.00;;;;;;4901466;29;20221;-79
2021/03/04 03:10:17;;;;;;;11.17;8.90;;;9.60;82.60;;;;;;4900857;29;20505;-79
2021/03/04 03:12:45;;;;;;;10.03;8.87;;;9.60;83.50;;;;;;4901342;29;20469;-78
2021/03/04 03:15:13;;;;;;;11.00;9.88;;;9.60;84.10;;;;;;4899873;29;20464;-79
2021/03/04 03:17:40;;;;;;;9.73;8.18;;;9.60;83.50;;;;;;4900534;29;20235;-79
2021/03/04 03:20:09;;;;;;;11.37;7.93;;;9.60;83.10;;;;;;4901571;29;20296;-79
2021/03/04 03:22:36;;;;;;;11.23;8.27;;;9.60;82.60;;;;;;4901108;29;20460;-79
2021/03/04 03:25:04;;;;;;;13.87;8.37;;;9.60;82.30;;;;;;4901494;29;20959;-79
2021/03/04 03:27:30;;;;;;;9.40;8.50;;;9.60;81.10;;;;;;4901503;29;20462;-79
2021/03/04 03:29:57;;;;;;;11.97;7.93;;;9.60;80.40;;;;;;4901000;29;20508;-80
2021/03/04 03:32:24;;;;;;;8.90;8.10;;;9.60;80.50;;;;;;4901226;29;20460;-80
2021/03/04 03:34:52;;;;;;;11.87;8.17;;;9.60;81.00;;;;;;4900753;29;20456;-80
2021/03/04 03:37:20;;;;;;;11.75;9.38;;;9.50;81.40;;;;;;4900829;29;20461;-80
2021/03/04 03:39:49;;;;;;;11.13;9.27;;;9.40;81.70;;;;;;4900648;29;20234;-79
2021/03/04 03:42:16;;;;;;;10.77;9.77;;;9.40;81.80;;;;;;4900506;29;20464;-80
2021/03/04 03:44:43;;;;;;;11.30;9.43;;;9.30;81.90;;;;;;4900709;29;20468;-80
2021/03/04 03:47:10;;;;;;;10.87;9.87;;;9.30;82.60;;;;;;4900515;29;20224;-80
2021/03/04 03:49:38;;;;;;;11.27;8.00;;;9.30;82.90;;;;;;4900653;29;20495;-79
2021/03/04 03:52:05;;;;;;;10.32;8.50;;;9.20;83.00;;;;;;4900051;29;20834;-80
2021/03/04 03:54:34;;;;;;;10.70;9.00;;;9.20;83.10;;;;;;4900840;29;20218;-80
2021/03/04 03:57:01;;;;;;;10.03;8.50;;;9.20;83.00;;;;;;4900771;29;20463;-80
2021/03/04 03:59:28;;;;;;;10.90;8.97;;;9.20;82.90;;;;;;4900249;29;20474;-80
2021/03/04 04:01:55;;;;;;;9.60;7.57;;;9.20;82.80;;;;;;4900423;29;20458;-79
2021/03/04 04:04:22;;;;;;;8.55;7.82;;;9.20;82.50;;;;;;4900330;29;20456;-80
2021/03/04 04:06:49;;;;;;;10.95;9.85;;;9.20;82.50;;;;;;4900444;29;20216;-80
2021/03/04 04:09:16;;;;;;;9.27;8.13;;;9.20;82.40;;;;;;4900396;29;20236;-80
2021/03/04 04:11:43;;;;;;;8.27;7.38;;;9.20;82.60;;;;;;4900147;29;20213;-79
2021/03/04 04:14:09;;;;;;;11.23;8.77;;;9.20;82.80;;;;;;4899913;29;20212;-80
2021/03/04 04:16:36;;;;;;;10.90;7.90;;;9.20;82.80;;;;;;4899917;29;20499;-80
2021/03/04 04:19:02;;;;;;;11.90;9.67;;;9.10;81.80;;;;;;4900085;29;20487;-79
2021/03/04 04:21:30;;;;;;;11.63;9.17;;;9.10;81.90;;;;;;4899808;29;20460;-78
2021/03/04 04:23:57;;;;;;;11.65;10.05;;;9.20;81.80;;;;;;4900067;29;20465;-80
2021/03/04 04:26:23;;;;;;;9.50;8.55;;;9.10;82.10;;;;;;4900196;29;20707;-80
2021/03/04 04:28:50;;;;;;;10.25;8.48;;;9.00;82.40;;;;;;4900474;29;20229;-80
2021/03/04 04:31:16;;;;;;;11.73;10.53;;;8.80;82.50;;;;;;4902929;29;20231;-80
2021/03/04 04:33:42;;;;;;;10.60;9.25;;;8.70;83.30;;;;;;4902917;29;20523;-80
2021/03/04 04:36:09;;;;;;;10.35;8.82;;;8.60;84.00;;;;;;4903081;29;20213;-79
2021/03/04 04:38:35;;;;;;;9.65;8.63;;;8.50;84.50;;;;;;4901558;29;20261;-80
2021/03/04 04:41:01;;;;;;;12.35;9.40;;;8.40;85.20;;;;;;4900335;29;20219;-80
2021/03/04 04:43:28;;;;;;;10.90;9.80;;;8.20;85.90;;;;;;4899574;29;20220;-80
2021/03/04 04:45:55;;;;;;;13.70;10.48;;;8.10;86.30;;;;;;4899730;29;20230;-79
2021/03/04 04:48:21;;;;;;;10.43;8.70;;;8.10;86.40;;;;;;4900099;29;20252;-79
2021/03/04 04:50:47;;;;;;;15.27;10.70;;;8.20;86.60;;;;;;4901007;29;20608;-79
2021/03/04 04:53:13;;;;;;;11.48;10.30;;;8.20;86.40;;;;;;4901356;29;20216;-80
2021/03/04 04:55:40;;;;;;;13.77;9.05;;;8.20;86.10;;;;;;4901118;29;20211;-80
2021/03/04 04:58:06;;;;;;;11.93;9.15;;;8.10;86.20;;;;;;4899744;29;20216;-79
2021/03/04 05:00:32;;;;;;;12.73;10.65;;;8.20;86.60;;;;;;4899433;29;20228;-80
2021/03/04 05:02:59;;;;;;;9.65;8.65;;;8.20;86.40;;;;;;4899265;29;20219;-80
2021/03/04 05:05:25;;;;;;;10.98;9.82;;;8.20;86.60;;;;;;4899163;29;20213;-80
2021/03/04 05:07:52;;;;;;;15.90;9.63;;;8.20;86.40;;;;;;4899474;29;20211;-80
2021/03/04 05:10:19;;;;;;;13.50;8.95;;;8.30;86.40;;;;;;4901041;29;20231;-80
2021/03/04 05:12:45;;;;;;;10.77;9.52;;;8.30;86.00;;;;;;4899209;29;20600;-80
2021/03/04 05:15:12;;;;;;;10.67;9.63;;;8.40;85.80;;;;;;4898928;29;20219;-80
2021/03/04 05:17:39;;;;;;;10.35;9.35;;;8.40;85.90;;;;;;4899210;29;20856;-80
2021/03/04 05:20:07;;;;;;;9.15;8.35;;;8.40;85.80;;;;;;4899289;29;20234;-80
2021/03/04 05:22:34;;;;;;;11.77;9.15;;;8.40;85.40;;;;;;4899131;29;20353;-79
2021/03/04 05:25:00;;;;;;;10.13;9.13;;;8.40;85.30;;;;;;4899321;29;20208;-79
2021/03/04 05:27:26;;;;;;;9.67;8.67;;;8.40;85.80;;;;;;4898884;29;20676;-80
2021/03/04 05:29:53;;;;;;;9.70;8.57;;;8.40;85.80;;;;;;4898719;29;20491;-80
2021/03/04 05:32:19;;;;;;;9.35;8.40;;;8.40;85.60;;;;;;4898734;29;20200;-80
2021/03/04 05:34:45;;;;;;;10.55;9.50;;;8.40;85.30;;;;;;4899017;29;20217;-80
2021/03/04 05:37:13;;;;;;;10.32;9.32;;;8.40;85.20;;;;;;4899289;29;20212;-80
2021/03/04 05:39:39;;;;;;;11.30;10.10;;;8.40;85.40;;;;;;4898965;29;20224;-79
2021/03/04 05:42:06;;;;;;;12.88;10.00;;;8.40;85.60;;;;;;4898973;29;20216;-80
2021/03/04 05:44:33;;;;;;;11.20;9.48;;;8.40;85.50;;;;;;4901959;29;20220;-79
2021/03/04 05:47:00;;;;;;;12.75;11.55;;;8.40;85.30;;;;;;4903519;29;20215;-79
2021/03/04 05:49:29;;;;;;;11.93;9.65;;;8.50;85.10;;;;;;4903221;29;20238;-78
2021/03/04 05:51:57;;;;;;;12.25;9.63;;;8.50;84.90;;;;;;4900356;29;20219;-80
2021/03/04 05:54:27;;;;;;;18.58;10.23;;;8.50;85.00;;;;;;4898623;29;20686;-80
2021/03/04 05:56:54;;;;;;;11.40;10.23;;;8.40;85.40;;;;;;4898947;29;20215;-80
2021/03/04 05:59:22;;;;;;;12.15;10.65;;;8.40;85.40;;;;;;4898316;29;20231;-79
2021/03/04 06:01:49;;;;;;;11.02;9.05;;;8.40;85.30;;;;;;4898398;29;20580;-80
2021/03/04 06:04:16;;;;;;;10.98;9.45;;;8.40;85.00;;;;;;4898422;29;20289;-79
2021/03/04 06:06:42;;;;;;;12.38;9.10;;;8.40;84.70;;;;;;4898584;29;20217;-80
2021/03/04 06:09:08;;;;;;;12.70;10.27;;;8.40;84.20;;;;;;4898390;29;20736;-79
2021/03/04 06:11:37;;;;;;;11.07;9.32;;;8.40;84.00;;;;;;4898301;29;20247;-79
2021/03/04 06:14:04;;;;;;;10.30;8.75;;;8.40;83.70;;;;;;4898477;29;20758;-79
2021/03/04 06:16:31;;;;;;;12.32;9.90;;;8.40;83.70;;;;;;4898879;29;20268;-80
2021/03/04 06:18:57;;;;;;;12.38;9.32;;;8.40;83.70;;;;;;4898345;29;20238;-80
2021/03/04 06:21:24;;;;;;;10.57;8.88;;;8.40;84.40;;;;;;4898777;29;20212;-80
2021/03/04 06:23:51;;;;;;;9.85;8.90;;;8.40;84.40;;;;;;4898146;29;20215;-80
2021/03/04 06:26:35;;;;;;;11.95;8.63;;;8.40;84.50;;;;;;4898503;29;20211;-79
2021/03/04 06:29:11;;;;;;;10.65;9.73;;;8.40;84.90;;;;;;4898645;29;20324;-80
2021/03/04 06:31:37;;;;;;;9.68;8.70;;;8.50;85.20;;;;;;4898462;29;20244;-80
2021/03/04 06:34:15;;;;;;;9.73;8.85;;;8.50;84.70;;;;;;4898453;29;20680;-79
2021/03/04 06:36:52;;;;;;;10.10;7.55;;;8.60;85.20;;;;;;4898612;29;20208;-79
2021/03/04 06:39:18;;;;;;;10.85;8.52;;;8.60;84.60;;;;;;4901039;29;20231;-80
2021/03/04 06:41:44;;;;;;;9.38;8.57;;;8.70;83.80;;;;;;4902579;29;20735;-80
2021/03/04 06:44:11;;;;;;;13.20;9.80;;;8.70;84.20;;;;;;4902793;29;20213;-80
2021/03/04 06:46:44;;;;;;;12.95;11.65;;;8.80;84.40;;;;;;4902513;29;20213;-80
2021/03/04 06:49:11;;;;;;;20.85;11.50;;;8.80;85.20;;;;;;4902128;29;20227;-80
2021/03/04 06:51:43;;;;;;;12.38;10.35;;;8.80;85.40;;;;;;4901844;29;20668;-80
2021/03/04 06:54:09;;;;;;;13.13;10.70;;;8.90;85.60;;;;;;4902325;29;20712;-79
2021/03/04 06:56:35;;;;;;;10.03;9.03;;;8.90;85.50;;;;;;4902252;29;20465;-80
2021/03/04 06:59:02;;;;;;;9.63;8.60;;;9.00;85.40;;;;;;4902247;29;20496;-81
2021/03/04 07:01:30;;;;;;;10.93;9.63;;;8.90;84.00;;;;;;4901483;29;20206;-80
2021/03/04 07:03:56;;;;;;;14.45;9.68;;;8.90;84.10;;;;;;4907083;29;20296;-80
2021/03/04 07:06:24;;;;;;;9.37;8.47;;;9.00;84.60;;;;;;4904056;29;20210;-80
2021/03/04 07:08:52;;;;;;;13.30;8.50;;;9.10;84.70;;;;;;4910955;29;20465;-80
2021/03/04 07:11:20;;;;;;;10.40;8.93;;;9.20;84.60;;;;;;4906590;29;20562;-80
2021/03/04 07:13:47;;;;;;;10.55;9.40;;;9.30;84.50;;;;;;4907575;29;20795;-80
2021/03/04 07:16:18;;;;;;;10.17;8.93;;;9.40;83.50;;;;;;4907883;29;20215;-79
2021/03/04 07:18:48;;;;;;;9.53;8.50;;;9.50;82.20;;;;;;4904266;29;20485;-80
2021/03/04 07:21:20;;;;;;;12.20;7.87;;;9.70;81.40;;;;;;4905616;29;20559;-79
2021/03/04 07:23:48;;;;;;;9.47;8.33;;;9.70;81.20;;;;;;4907344;29;20516;-80
2021/03/04 07:26:15;;;;;;;11.23;9.87;;;9.80;80.80;;;;;;4919989;29;20461;-79
2021/03/04 07:28:44;;;;;;;11.23;10.10;;;9.90;81.10;;;;;;4920339;29;20470;-80
2021/03/04 07:31:12;;;;;;;13.23;11.23;;;10.00;80.40;;;;;;4920424;29;20866;-80
2021/03/04 07:33:42;;;;;;;9.73;8.80;;;10.10;80.30;;;;;;4919566;29;20846;-80
2021/03/04 07:36:11;;;;;;;14.97;10.10;;;10.10;80.40;;;;;;4920389;29;20466;-80
2021/03/04 07:38:38;;;;;;;11.23;10.03;;;10.10;79.90;;;;;;4919237;29;20535;-81
2021/03/04 07:41:07;;;;;;;12.33;10.00;;;10.20;79.70;;;;;;4920702;29;20453;-80
2021/03/04 07:43:44;;;;;;;16.83;11.10;;;10.20;79.30;;;;;;4920152;29;20459;-80
2021/03/04 07:46:11;;;;;;;11.13;9.33;;;10.30;78.70;;;;;;4908887;29;20903;-80
2021/03/04 07:49:37;;;;;;;10.67;9.67;;;10.40;78.80;;;;;;4906114;29;21029;-82
2021/03/04 07:52:11;;;;;;;12.40;8.90;;;10.50;78.30;;;;;;4866634;29;20433;-81
2021/03/04 07:54:43;;;;;;;17.50;11.00;;;10.70;79.00;;;;;;4907084;29;20465;-81
2021/03/04 07:57:11;;;;;;;10.40;9.37;;;10.80;78.10;;;;;;4906662;29;20445;-81
2021/03/04 07:59:49;;;;;;;10.77;8.70;;;10.90;77.50;;;;;;4906490;29;20839;-81
2021/03/04 08:02:23;;;;;;;10.23;9.13;;;11.10;77.50;;;;;;4905684;29;20442;-81
2021/03/04 08:23:04;;;;;;;10.60;7.23;;;11.60;71.40;;;;;;4739874;30;20489;-81
2021/03/04 08:42:41;;;;;;;11.73;8.20;;;12.10;68.70;;;;;;4707265;30;20457;-80
2021/03/04 09:30:05;;;;;;;7.10;6.33;;;13.60;64.40;;;;;;4828201;29;20922;-83
2021/03/04 09:36:00;;;;;;;9.40;7.53;;;13.40;65.60;;;;;;4848010;29;20543;-80
2021/03/04 09:38:27;;;;;;;11.90;7.87;;;13.50;64.90;;;;;;4885609;29;20450;-80
2021/03/04 09:40:55;;;;;;;7.07;6.40;;;13.30;65.10;;;;;;4918333;29;20451;-79
2021/03/04 09:43:22;;;;;;;8.43;7.13;;;13.10;64.80;;;;;;4918285;29;20458;-80
2021/03/04 09:45:51;;;;;;;7.73;6.10;;;12.90;65.80;;;;;;4918898;29;20459;-79
2021/03/04 09:48:28;;;;;;;8.57;6.67;;;12.70;67.50;;;;;;4918408;29;20459;-80
2021/03/04 09:50:55;;;;;;;7.47;6.33;;;12.60;67.00;;;;;;4919954;29;20521;-81
2021/03/04 09:53:21;;;;;;;7.53;5.83;;;12.70;67.20;;;;;;4918035;29;20966;-82
2021/03/04 09:55:47;;;;;;;8.53;7.20;;;12.90;67.50;;;;;;4919441;29;20589;-80
2021/03/04 09:58:15;;;;;;;8.40;7.33;;;13.00;67.10;;;;;;4925467;29;20461;-81
2021/03/04 10:00:42;;;;;;;11.57;6.37;;;13.10;66.40;;;;;;4923122;29;20459;-81
2021/03/04 10:03:11;;;;;;;11.70;6.53;;;13.20;66.90;;;;;;4919516;29;20458;-80
2021/03/04 10:05:48;;;;;;;9.03;7.30;;;13.30;66.10;;;;;;4918300;29;20809;-80
2021/03/04 10:08:15;;;;;;;9.60;7.13;;;13.30;65.80;;;;;;4917806;29;20466;-79
2021/03/04 10:10:42;;;;;;;9.73;6.43;;;13.40;66.50;;;;;;4918001;29;20493;-80
2021/03/04 10:13:09;;;;;;;8.50;7.00;;;13.50;66.30;;;;;;4918725;29;20458;-79
2021/03/04 10:15:37;;;;;;;9.63;7.20;;;13.70;66.30;;;;;;4921206;29;20462;-79
2021/03/04 10:18:07;;;;;;;8.17;7.00;;;13.90;66.60;;;;;;4921507;29;21063;-79
2021/03/04 10:20:35;;;;;;;8.57;6.77;;;14.00;65.50;;;;;;4921027;29;20467;-79
2021/03/04 10:23:01;;;;;;;10.10;7.93;;;14.30;65.60;;;;;;4921324;29;20514;-80
2021/03/04 10:25:27;;;;;;;12.90;7.03;;;14.30;65.50;;;;;;4921813;29;20482;-79
2021/03/04 10:27:55;;;;;;;13.80;7.70;;;14.40;65.80;;;;;;4920568;29;20465;-80
2021/03/04 10:30:22;;;;;;;12.00;8.57;;;14.40;65.70;;;;;;4921282;29;20500;-80
2021/03/04 10:32:48;;;;;;;13.27;7.57;;;14.60;65.90;;;;;;4921638;29;20471;-80
2021/03/04 10:35:16;;;;;;;12.00;7.60;;;14.80;64.50;;;;;;4922277;29;20463;-80
2021/03/04 10:37:44;;;;;;;12.63;8.30;;;15.00;63.90;;;;;;4924728;29;20458;-81
2021/03/04 10:40:12;;;;;;;9.27;7.70;;;15.00;63.30;;;;;;4924432;29;20571;-81
2021/03/04 10:42:39;;;;;;;14.00;8.70;;;15.10;63.60;;;;;;4921526;29;20877;-80
2021/03/04 10:45:07;;;;;;;9.03;7.00;;;15.10;64.50;;;;;;4922078;29;20885;-81
2021/03/04 10:47:34;;;;;;;9.27;7.23;;;15.10;64.10;;;;;;4921930;29;20467;-81
2021/03/04 10:50:00;;;;;;;8.03;7.27;;;15.30;64.20;;;;;;4921415;29;20961;-80
2021/03/04 10:52:26;;;;;;;10.13;7.30;;;15.50;64.10;;;;;;4920866;29;20439;-78
2021/03/04 10:54:53;;;;;;;8.07;6.50;;;15.70;62.50;;;;;;4920472;29;20962;-78
2021/03/04 10:57:20;;;;;;;9.27;7.67;;;15.80;62.80;;;;;;4922578;29;20462;-79
2021/03/04 10:59:46;;;;;;;11.93;9.73;;;15.90;62.80;;;;;;4925241;29;20483;-78
2021/03/04 11:02:12;;;;;;;9.80;8.80;;;16.20;62.70;;;;;;4923041;29;20460;-80
2021/03/04 11:04:38;;;;;;;10.63;7.87;;;16.40;62.90;;;;;;4921016;29;20465;-79
2021/03/04 11:07:05;;;;;;;10.77;7.70;;;16.70;60.90;;;;;;4922532;29;20451;-79
2021/03/04 11:09:33;;;;;;;15.83;8.83;;;16.90;61.10;;;;;;4923024;29;20492;-79
2021/03/04 11:12:00;;;;;;;11.57;10.37;;;17.50;60.60;;;;;;4921693;29;20552;-81
2021/03/04 11:14:26;;;;;;;10.00;8.97;;;18.10;61.10;;;;;;4922065;29;20454;-81
2021/03/04 11:16:52;;;;;;;13.33;8.43;;;18.70;57.90;;;;;;4920943;29;20462;-79
2021/03/04 11:19:18;;;;;;;13.73;7.63;;;18.90;55.60;;;;;;4921051;29;21076;-80
2021/03/04 11:21:46;;;;;;;10.37;7.90;;;19.00;55.70;;;;;;4921000;29;20446;-79
2021/03/04 11:24:13;;;;;;;9.90;8.30;;;19.30;55.00;;;;;;4921855;29;20958;-81
2021/03/04 11:26:39;;;;;;;10.07;7.03;;;19.50;55.20;;;;;;4921838;29;20460;-81
2021/03/04 11:29:07;;;;;;;12.10;8.80;;;19.90;54.70;;;;;;4920249;29;20486;-80
2021/03/04 11:31:34;;;;;;;15.33;10.00;;;20.10;54.30;;;;;;4919721;29;20495;-79
2021/03/04 11:34:00;;;;;;;12.50;8.73;;;20.40;54.00;;;;;;4920081;29;20471;-80
2021/03/04 11:36:28;;;;;;;11.80;8.80;;;20.80;54.10;;;;;;4920136;29;20461;-80
2021/03/04 11:38:54;;;;;;;9.57;8.57;;;21.20;53.30;;;;;;4920296;29;20494;-80
2021/03/04 11:41:20;;;;;;;10.10;8.67;;;21.60;52.50;;;;;;4919850;29;21012;-79
2021/03/04 11:43:46;;;;;;;9.90;8.10;;;21.60;50.50;;;;;;4920529;29;20971;-80
2021/03/04 11:46:13;;;;;;;9.13;8.23;;;21.50;49.60;;;;;;4920033;29;20460;-80
2021/03/04 11:48:40;;;;;;;11.37;10.00;;;20.70;48.80;;;;;;4920255;29;20474;-81
2021/03/04 11:51:07;;;;;;;9.97;8.93;;;19.60;49.70;;;;;;4919725;29;20497;-80
2021/03/04 11:53:33;;;;;;;8.80;8.00;;;19.00;51.70;;;;;;4919162;29;20962;-80
2021/03/04 11:55:59;;;;;;;15.00;9.73;;;18.50;52.40;;;;;;4919483;29;20473;-80
2021/03/04 11:58:25;;;;;;;14.73;9.80;;;17.80;52.60;;;;;;4921796;29;20893;-81
2021/03/04 12:00:52;;;;;;;11.57;9.80;;;17.70;54.10;;;;;;4924122;29;20460;-81
2021/03/04 12:03:19;;;;;;;13.00;9.07;;;17.70;54.10;;;;;;4924368;29;20468;-82
2021/03/04 12:05:45;;;;;;;11.77;8.33;;;17.70;54.00;;;;;;4923314;29;20465;-81
2021/03/04 12:08:11;;;;;;;8.60;7.70;;;17.80;54.30;;;;;;4921637;29;20468;-80
2021/03/04 12:10:38;;;;;;;9.67;8.67;;;17.80;54.10;;;;;;4920778;29;20844;-81
2021/03/04 12:13:04;;;;;;;9.60;8.17;;;18.00;53.80;;;;;;4923053;29;20465;-81
2021/03/04 12:15:30;;;;;;;10.60;8.77;;;18.50;54.10;;;;;;4922393;29;20469;-79
2021/03/04 12:17:56;;;;;;;14.00;8.93;;;19.10;52.60;;;;;;4919507;29;20469;-79
2021/03/04 12:20:24;;;;;;;13.30;9.97;;;19.20;52.10;;;;;;4919225;29;21018;-78
2021/03/04 12:22:50;;;;;;;11.70;8.83;;;19.40;52.20;;;;;;4919217;29;20454;-79
2021/03/04 12:25:16;;;;;;;17.00;8.83;;;19.50;51.70;;;;;;4919589;29;20451;-79
2021/03/04 12:27:42;;;;;;;16.00;9.00;;;19.80;52.00;;;;;;4919509;29;20469;-79
2021/03/04 12:30:10;;;;;;;12.90;8.80;;;19.90;50.30;;;;;;4919573;29;20489;-79
2021/03/04 12:32:37;;;;;;;10.50;7.60;;;19.90;49.90;;;;;;4918942;29;20966;-80
2021/03/04 12:35:04;;;;;;;11.13;7.30;;;19.80;49.60;;;;;;4919422;29;20947;-80
2021/03/04 12:37:31;;;;;;;13.17;9.50;;;20.00;50.40;;;;;;4919726;29;20489;-80
2021/03/04 12:39:57;;;;;;;11.70;9.10;;;20.20;50.30;;;;;;4920278;29;20490;-82
2021/03/04 12:42:23;;;;;;;10.70;8.80;;;19.70;49.80;;;;;;4923210;29;20539;-82
2021/03/04 12:44:50;;;;;;;16.93;10.93;;;19.40;50.50;;;;;;4919479;29;20466;-83
2021/03/04 12:47:16;;;;;;;12.10;9.73;;;18.90;50.60;;;;;;4919751;29;20457;-79
2021/03/04 12:49:42;;;;;;;13.27;8.70;;;18.90;51.30;;;;;;4918876;29;20477;-79
2021/03/04 12:52:09;;;;;;;16.00;9.73;;;19.20;51.70;;;;;;4918771;29;20498;-79
2021/03/04 12:54:36;;;;;;;10.13;8.93;;;19.50;51.00;;;;;;4919198;29;20482;-80
2021/03/04 12:57:03;;;;;;;12.07;9.70;;;20.10;50.60;;;;;;4919907;29;20450;-81
2021/03/04 12:59:29;;;;;;;14.67;9.60;;;20.60;49.90;;;;;;4919990;29;20482;-81
2021/03/04 13:01:55;;;;;;;12.37;8.70;;;21.20;48.90;;;;;;4919331;29;20503;-81
2021/03/04 13:04:21;;;;;;;10.60;7.53;;;21.60;48.50;;;;;;4919365;29;20516;-80
2021/03/04 13:06:47;;;;;;;11.73;9.87;;;21.80;47.60;;;;;;4919991;29;20482;-82
2021/03/04 13:09:14;;;;;;;10.27;8.83;;;21.50;46.60;;;;;;4917602;29;21001;-80
2021/03/04 13:11:42;;;;;;;10.03;8.80;;;21.20;47.10;;;;;;4925316;29;20869;-80
2021/03/04 13:14:09;;;;;;;14.20;8.57;;;20.30;47.30;;;;;;4937093;29;20468;-80
2021/03/04 13:16:36;;;;;;;10.60;9.60;;;19.40;48.40;;;;;;4937092;29;20469;-80
2021/03/04 13:19:02;;;;;;;13.73;8.23;;;19.00;50.00;;;;;;4921633;29;20482;-80
2021/03/04 13:21:30;;;;;;;11.90;8.90;;;19.20;50.60;;;;;;4918105;29;20457;-80
2021/03/04 13:23:57;;;;;;;11.53;10.43;;;19.50;50.30;;;;;;4918222;29;20462;-79
2021/03/04 13:26:23;;;;;;;12.20;9.03;;;19.50;50.20;;;;;;4918384;29;20514;-80
2021/03/04 13:28:51;;;;;;;11.40;8.60;;;19.20;50.30;;;;;;4919676;29;20492;-81
2021/03/04 13:31:17;;;;;;;9.60;8.70;;;19.20;51.30;;;;;;4918917;29;20497;-80
2021/03/04 13:33:43;;;;;;;11.50;7.43;;;19.20;50.90;;;;;;4919605;29;20473;-81
2021/03/04 13:36:10;;;;;;;9.23;7.73;;;19.30;51.20;;;;;;4920161;29;20482;-82
2021/03/04 13:38:36;;;;;;;8.93;8.00;;;19.50;51.00;;;;;;4919397;29;20489;-83
2021/03/04 13:41:03;;;;;;;10.87;8.37;;;19.20;50.50;;;;;;4918146;29;20483;-79
2021/03/04 13:43:29;;;;;;;10.90;8.50;;;19.00;50.70;;;;;;4917796;29;20457;-80
2021/03/04 13:45:56;;;;;;;10.50;8.00;;;19.00;50.90;;;;;;4919848;29;20471;-82
2021/03/04 13:48:23;;;;;;;11.47;8.50;;;18.90;51.20;;;;;;4919102;29;20809;-81
2021/03/04 13:50:50;;;;;;;12.60;8.97;;;18.70;51.70;;;;;;4911227;29;20493;-82
2021/03/04 13:53:16;;;;;;;13.17;9.43;;;18.50;52.20;;;;;;4918882;29;20546;-81
2021/03/04 13:55:43;;;;;;;20.83;10.70;;;18.20;52.10;;;;;;4919416;29;20459;-80
2021/03/04 13:58:10;;;;;;;10.87;9.77;;;18.00;53.30;;;;;;4920514;29;20468;-82
2021/03/04 14:00:36;;;;;;;17.30;8.00;;;17.80;54.40;;;;;;4917859;29;20537;-80
2021/03/04 14:03:04;;;;;;;25.37;9.67;;;17.70;55.60;;;;;;4917433;29;20473;-80
2021/03/04 14:05:30;;;;;;;9.73;6.77;;;17.20;55.60;;;;;;4918153;29;20515;-83
2021/03/04 14:07:56;;;;;;;10.93;6.60;;;16.60;55.80;;;;;;4919244;29;20456;-80
2021/03/04 14:10:23;;;;;;;7.43;5.67;;;16.20;55.30;;;;;;4919866;29;20546;-82
2021/03/04 14:12:49;;;;;;;7.27;5.23;;;16.00;54.20;;;;;;4921618;29;20461;-83